CGMPW LGSR-HECA
Flight info
| Callsign | CGMPW |
|---|---|
| Flight time | N/A |
| Altitude | 35000 |
| Route | ASTIS UL52 NAXAS UN139 KUMBI L612 BLT A16 CVO |
| Aircraft | PC24/L-SBDGIRWY/LB2 |
Departure
| Time | 2026-04-29 10:25 |
|---|---|
| Airport | Santorini International Airport (LGSR) |
Arrival
| Time | N/A |
|---|---|
| Airport | Cairo International Airport (HECA) |
| Time | Latitude | Longitude | Altitude | Speed | Heading |
|---|---|---|---|---|---|
| 2026-04-29 10:24 | 36.28799 | 25.49895 | 9115 ft | 313 kts | 185° |
| 2026-04-29 10:25 | 36.26614 | 25.49680 | 9803 ft | 315 kts | 185° |
| 2026-04-29 10:25 | 36.24420 | 25.49483 | 10423 ft | 317 kts | 185° |
| 2026-04-29 10:25 | 36.22206 | 25.49294 | 11046 ft | 319 kts | 185° |
| 2026-04-29 10:25 | 36.20019 | 25.49056 | 11671 ft | 317 kts | 187° |
| 2026-04-29 10:26 | 36.18649 | 25.49124 | 12040 ft | 323 kts | 169° |
| 2026-04-29 10:26 | 36.16592 | 25.50222 | 12694 ft | 324 kts | 150° |
| 2026-04-29 10:26 | 36.14669 | 25.51748 | 13377 ft | 330 kts | 147° |
| 2026-04-29 10:26 | 36.12794 | 25.53392 | 14035 ft | 332 kts | 140° |
| 2026-04-29 10:27 | 36.10955 | 25.58516 | 15242 ft | 338 kts | 97° |
| 2026-04-29 10:27 | 36.10649 | 25.61416 | 15889 ft | 342 kts | 97° |
| 2026-04-29 10:27 | 36.10211 | 25.64322 | 16545 ft | 345 kts | 103° |
| 2026-04-29 10:28 | 36.09562 | 25.67195 | 17206 ft | 350 kts | 106° |
| 2026-04-29 10:28 | 36.08906 | 25.70110 | 17886 ft | 353 kts | 104° |
| 2026-04-29 10:28 | 36.08338 | 25.73041 | 18543 ft | 356 kts | 103° |
| 2026-04-29 10:28 | 36.07759 | 25.76041 | 19158 ft | 360 kts | 104° |
| 2026-04-29 10:29 | 36.07141 | 25.79054 | 19769 ft | 364 kts | 104° |
| 2026-04-29 10:29 | 36.06511 | 25.82105 | 20403 ft | 368 kts | 104° |
| 2026-04-29 10:29 | 36.05886 | 25.85190 | 21051 ft | 372 kts | 104° |
| 2026-04-29 10:29 | 36.05254 | 25.88314 | 21715 ft | 375 kts | 104° |
| 2026-04-29 10:30 | 36.04616 | 25.91446 | 22384 ft | 378 kts | 104° |
| 2026-04-29 10:30 | 36.03969 | 25.94616 | 23081 ft | 381 kts | 104° |
| 2026-04-29 10:30 | 36.03317 | 25.97799 | 23768 ft | 383 kts | 104° |
| 2026-04-29 10:30 | 36.02664 | 26.00992 | 24363 ft | 384 kts | 104° |
| 2026-04-29 10:31 | 36.02005 | 26.04209 | 24881 ft | 389 kts | 104° |
| 2026-04-29 10:31 | 36.01330 | 26.07499 | 24973 ft | 399 kts | 104° |
| 2026-04-29 10:31 | 36.00656 | 26.10772 | 24972 ft | 397 kts | 104° |
| 2026-04-29 10:31 | 35.99971 | 26.14105 | 24966 ft | 407 kts | 104° |
| 2026-04-29 10:32 | 35.99259 | 26.17551 | 24980 ft | 418 kts | 104° |
| 2026-04-29 10:32 | 35.98539 | 26.21043 | 24976 ft | 422 kts | 104° |
| 2026-04-29 10:32 | 35.97808 | 26.24573 | 24978 ft | 424 kts | 104° |
| 2026-04-29 10:32 | 35.97005 | 26.28087 | 24957 ft | 424 kts | 111° |
| 2026-04-29 10:33 | 35.95446 | 26.31148 | 24957 ft | 422 kts | 131° |
| 2026-04-29 10:33 | 35.93423 | 26.33759 | 25053 ft | 418 kts | 137° |
| 2026-04-29 10:33 | 35.91329 | 26.36231 | 25547 ft | 416 kts | 137° |
| 2026-04-29 10:33 | 35.89327 | 26.38818 | 26032 ft | 418 kts | 131° |
| 2026-04-29 10:34 | 35.87566 | 26.41674 | 26524 ft | 419 kts | 126° |
| 2026-04-29 10:34 | 35.85942 | 26.44611 | 27022 ft | 419 kts | 125° |
| 2026-04-29 10:34 | 35.84244 | 26.47535 | 27533 ft | 419 kts | 128° |
| 2026-04-29 10:34 | 35.82423 | 26.50340 | 28045 ft | 418 kts | 130° |
| 2026-04-29 10:35 | 35.80614 | 26.53152 | 28570 ft | 418 kts | 129° |
| 2026-04-29 10:35 | 35.78870 | 26.56024 | 29108 ft | 418 kts | 128° |
| 2026-04-29 10:35 | 35.77205 | 26.58767 | 29638 ft | 388 kts | 129° |
| 2026-04-29 10:35 | 35.75557 | 26.61397 | 30167 ft | 389 kts | 129° |
| 2026-04-29 10:36 | 35.73901 | 26.64031 | 30636 ft | 389 kts | 129° |
| 2026-04-29 10:36 | 35.72253 | 26.66688 | 31121 ft | 390 kts | 129° |
| 2026-04-29 10:36 | 35.70630 | 26.69309 | 31606 ft | 389 kts | 129° |
| 2026-04-29 10:36 | 35.68984 | 26.71950 | 32108 ft | 389 kts | 129° |
| 2026-04-29 10:37 | 35.67338 | 26.74586 | 32618 ft | 388 kts | 129° |
| 2026-04-29 10:37 | 35.65695 | 26.77218 | 33134 ft | 386 kts | 129° |
| 2026-04-29 10:37 | 35.64066 | 26.79830 | 33660 ft | 384 kts | 129° |
| 2026-04-29 10:37 | 35.62442 | 26.82428 | 34170 ft | 382 kts | 129° |
| 2026-04-29 10:38 | 35.60830 | 26.85006 | 34625 ft | 379 kts | 129° |
| 2026-04-29 10:38 | 35.59216 | 26.87585 | 34989 ft | 380 kts | 130° |
| 2026-04-29 10:38 | 35.57581 | 26.90194 | 35040 ft | 391 kts | 130° |
| 2026-04-29 10:38 | 35.55894 | 26.92883 | 35049 ft | 402 kts | 130° |
| 2026-04-29 10:39 | 35.54184 | 26.95611 | 35044 ft | 413 kts | 129° |
| 2026-04-29 10:39 | 35.50599 | 27.01321 | 35039 ft | 431 kts | 129° |
| 2026-04-29 10:40 | 35.46867 | 27.07254 | 35032 ft | 445 kts | 129° |
| 2026-04-29 10:40 | 35.43028 | 27.13286 | 35025 ft | 455 kts | 133° |
| 2026-04-29 10:41 | 35.38289 | 27.18449 | 35030 ft | 456 kts | 145° |
| 2026-04-29 10:41 | 35.35873 | 27.20782 | 35035 ft | 429 kts | 145° |
| 2026-04-29 10:41 | 35.33575 | 27.23012 | 35031 ft | 421 kts | 145° |
| 2026-04-29 10:42 | 35.28878 | 27.27520 | 35041 ft | 436 kts | 145° |
| 2026-04-29 10:42 | 35.24047 | 27.32176 | 35049 ft | 448 kts | 145° |
| 2026-04-29 10:43 | 35.19123 | 27.36905 | 35045 ft | 450 kts | 145° |
| 2026-04-29 10:43 | 35.14199 | 27.41628 | 35045 ft | 449 kts | 145° |
| 2026-04-29 10:44 | 35.09315 | 27.46305 | 35046 ft | 448 kts | 145° |
| 2026-04-29 10:44 | 35.04410 | 27.50994 | 35043 ft | 447 kts | 145° |
| 2026-04-29 10:45 | 34.99503 | 27.55663 | 35042 ft | 446 kts | 145° |
| 2026-04-29 10:45 | 34.94600 | 27.60314 | 35049 ft | 445 kts | 145° |
| 2026-04-29 10:46 | 34.89706 | 27.64953 | 35046 ft | 447 kts | 145° |
| 2026-04-29 10:46 | 34.84810 | 27.69587 | 35037 ft | 450 kts | 145° |
| 2026-04-29 10:47 | 34.79822 | 27.74303 | 35040 ft | 454 kts | 145° |
| 2026-04-29 10:47 | 34.74852 | 27.78993 | 35034 ft | 451 kts | 146° |
| 2026-04-29 10:48 | 34.69894 | 27.83662 | 35034 ft | 451 kts | 146° |
| 2026-04-29 10:48 | 34.64941 | 27.88322 | 35038 ft | 454 kts | 146° |
| 2026-04-29 10:49 | 34.59933 | 27.93026 | 35046 ft | 453 kts | 146° |
| 2026-04-29 10:49 | 34.54960 | 27.97690 | 35038 ft | 452 kts | 146° |
| 2026-04-29 10:50 | 34.50787 | 28.01595 | 35042 ft | 457 kts | 146° |
| 2026-04-29 10:50 | 34.45754 | 28.06304 | 35048 ft | 457 kts | 146° |
| 2026-04-29 10:51 | 34.40717 | 28.11006 | 35046 ft | 454 kts | 146° |
| 2026-04-29 10:51 | 34.35720 | 28.15664 | 35052 ft | 453 kts | 146° |
| 2026-04-29 10:52 | 34.30724 | 28.20313 | 35046 ft | 456 kts | 146° |
| 2026-04-29 10:52 | 34.25688 | 28.24994 | 35039 ft | 457 kts | 146° |
| 2026-04-29 10:53 | 34.20621 | 28.29695 | 35045 ft | 459 kts | 146° |
| 2026-04-29 10:53 | 34.15593 | 28.34354 | 35039 ft | 456 kts | 146° |
| 2026-04-29 10:54 | 34.10553 | 28.39014 | 35042 ft | 456 kts | 146° |
| 2026-04-29 10:54 | 34.05490 | 28.43690 | 35043 ft | 459 kts | 146° |
| 2026-04-29 10:55 | 34.00417 | 28.48369 | 35045 ft | 458 kts | 146° |
| 2026-04-29 10:55 | 33.95389 | 28.52998 | 35040 ft | 456 kts | 146° |
| 2026-04-29 10:56 | 33.90291 | 28.57682 | 35049 ft | 462 kts | 146° |
| 2026-04-29 10:56 | 33.85192 | 28.62366 | 35049 ft | 460 kts | 146° |
| 2026-04-29 10:57 | 33.80103 | 28.67028 | 35046 ft | 459 kts | 146° |
| 2026-04-29 10:57 | 33.75051 | 28.71652 | 35048 ft | 458 kts | 146° |
| 2026-04-29 10:58 | 33.70087 | 28.76454 | 35047 ft | 459 kts | 139° |
| 2026-04-29 10:58 | 33.65405 | 28.81731 | 35037 ft | 463 kts | 140° |
| 2026-04-29 10:59 | 33.60651 | 28.87057 | 35047 ft | 467 kts | 140° |
| 2026-04-29 10:59 | 33.55965 | 28.92317 | 35044 ft | 463 kts | 140° |
| 2026-04-29 11:00 | 33.51238 | 28.97600 | 35051 ft | 465 kts | 140° |
| 2026-04-29 11:00 | 33.46495 | 29.02903 | 35054 ft | 466 kts | 140° |
| 2026-04-29 11:01 | 33.41759 | 29.08183 | 35052 ft | 463 kts | 140° |
| 2026-04-29 11:01 | 33.37051 | 29.13427 | 35051 ft | 461 kts | 140° |
| 2026-04-29 11:02 | 33.32373 | 29.18628 | 35046 ft | 464 kts | 140° |
| 2026-04-29 11:02 | 33.27604 | 29.23921 | 35053 ft | 470 kts | 140° |
| 2026-04-29 11:03 | 33.22827 | 29.29221 | 35057 ft | 464 kts | 140° |
| 2026-04-29 11:03 | 33.18072 | 29.34479 | 35054 ft | 467 kts | 140° |
| 2026-04-29 11:04 | 33.13326 | 29.39725 | 35061 ft | 468 kts | 140° |
| 2026-04-29 11:04 | 33.08563 | 29.44980 | 35058 ft | 465 kts | 140° |
| 2026-04-29 11:05 | 33.03813 | 29.50212 | 35053 ft | 464 kts | 140° |
| 2026-04-29 11:05 | 32.99052 | 29.55448 | 35047 ft | 468 kts | 141° |
| 2026-04-29 11:06 | 32.94232 | 29.60743 | 35052 ft | 472 kts | 141° |
| 2026-04-29 11:06 | 32.89406 | 29.66035 | 35052 ft | 470 kts | 141° |
| 2026-04-29 11:07 | 32.84624 | 29.71270 | 35054 ft | 470 kts | 141° |
| 2026-04-29 11:07 | 32.79807 | 29.76536 | 35053 ft | 469 kts | 141° |
| 2026-04-29 11:08 | 32.74993 | 29.81790 | 35051 ft | 469 kts | 141° |
| 2026-04-29 11:08 | 32.70213 | 29.86999 | 35056 ft | 468 kts | 141° |
| 2026-04-29 11:09 | 32.65397 | 29.92238 | 35049 ft | 473 kts | 141° |
| 2026-04-29 11:09 | 32.60513 | 29.97545 | 35055 ft | 476 kts | 141° |
| 2026-04-29 11:10 | 32.55837 | 30.03042 | 35034 ft | 479 kts | 127° |
| 2026-04-29 11:10 | 32.52173 | 30.09642 | 35062 ft | 481 kts | 125° |
| 2026-04-29 11:11 | 32.48479 | 30.16258 | 35058 ft | 478 kts | 125° |
| 2026-04-29 11:11 | 32.44906 | 30.22867 | 35033 ft | 478 kts | 116° |
| 2026-04-29 11:12 | 32.41873 | 30.29851 | 35061 ft | 479 kts | 128° |
| 2026-04-29 11:12 | 32.37820 | 30.36109 | 35059 ft | 478 kts | 128° |
| 2026-04-29 11:13 | 32.34346 | 30.42837 | 35055 ft | 479 kts | 120° |
| 2026-04-29 11:13 | 32.31005 | 30.49418 | 35055 ft | 476 kts | 125° |
| 2026-04-29 11:14 | 32.27462 | 30.55955 | 35048 ft | 475 kts | 122° |
| 2026-04-29 11:14 | 32.24003 | 30.62643 | 35047 ft | 478 kts | 124° |
| 2026-04-29 11:15 | 32.20426 | 30.69331 | 35051 ft | 481 kts | 123° |
| 2026-04-29 11:15 | 32.16932 | 30.75979 | 35046 ft | 478 kts | 123° |
| 2026-04-29 11:16 | 32.13388 | 30.82636 | 35047 ft | 479 kts | 123° |
| 2026-04-29 11:16 | 32.09850 | 30.89309 | 35050 ft | 481 kts | 123° |
| 2026-04-29 11:17 | 32.06285 | 30.96003 | 35056 ft | 482 kts | 123° |
| 2026-04-29 11:17 | 32.02750 | 31.02635 | 35051 ft | 478 kts | 123° |
| 2026-04-29 11:18 | 31.99211 | 31.09261 | 35050 ft | 478 kts | 123° |
| 2026-04-29 11:18 | 31.95662 | 31.15895 | 35053 ft | 480 kts | 123° |
| 2026-04-29 11:19 | 31.92089 | 31.22562 | 35056 ft | 481 kts | 124° |
| 2026-04-29 11:19 | 31.88522 | 31.29206 | 35053 ft | 479 kts | 123° |
| 2026-04-29 11:20 | 31.84989 | 31.35775 | 35051 ft | 477 kts | 124° |
| 2026-04-29 11:20 | 31.81437 | 31.42369 | 35049 ft | 476 kts | 124° |
| 2026-04-29 11:21 | 31.77876 | 31.48966 | 35049 ft | 478 kts | 124° |
| 2026-04-29 11:21 | 31.74301 | 31.55579 | 35055 ft | 479 kts | 123° |
| 2026-04-29 11:22 | 31.70758 | 31.62126 | 35052 ft | 476 kts | 124° |
| 2026-04-29 11:22 | 31.67198 | 31.68684 | 35050 ft | 477 kts | 124° |
| 2026-04-29 11:23 | 31.63623 | 31.75265 | 35053 ft | 479 kts | 124° |
| 2026-04-29 11:23 | 31.60030 | 31.81866 | 35059 ft | 479 kts | 124° |
| 2026-04-29 11:24 | 31.56463 | 31.88409 | 35053 ft | 475 kts | 124° |
| 2026-04-29 11:24 | 31.52907 | 31.94918 | 35055 ft | 478 kts | 124° |
| 2026-04-29 11:25 | 31.49308 | 32.01498 | 35063 ft | 478 kts | 124° |
| 2026-04-29 11:25 | 31.45723 | 32.08043 | 35065 ft | 476 kts | 124° |
| 2026-04-29 11:26 | 31.40356 | 32.17812 | 35068 ft | 475 kts | 124° |
| 2026-04-29 11:26 | 31.36790 | 32.24294 | 35076 ft | 478 kts | 124° |
| 2026-04-29 11:27 | 31.33175 | 32.30850 | 35078 ft | 478 kts | 124° |
| 2026-04-29 11:27 | 31.29577 | 32.37368 | 35067 ft | 475 kts | 124° |
| 2026-04-29 11:28 | 31.25992 | 32.43849 | 35061 ft | 475 kts | 124° |
| 2026-04-29 11:28 | 31.22389 | 32.50352 | 35057 ft | 478 kts | 124° |
| 2026-04-29 11:29 | 31.18790 | 32.56837 | 35048 ft | 479 kts | 124° |
| 2026-04-29 11:29 | 31.15169 | 32.63351 | 35035 ft | 477 kts | 124° |
| 2026-04-29 11:30 | 31.11560 | 32.69833 | 35034 ft | 475 kts | 124° |
| 2026-04-29 11:30 | 31.07954 | 32.76297 | 35032 ft | 476 kts | 124° |
| 2026-04-29 11:31 | 31.04328 | 32.82789 | 35035 ft | 478 kts | 124° |
| 2026-04-29 11:31 | 31.00683 | 32.89302 | 35038 ft | 480 kts | 124° |
| 2026-04-29 11:32 | 30.97024 | 32.95830 | 35039 ft | 482 kts | 125° |
| 2026-04-29 11:32 | 30.93348 | 33.02378 | 35041 ft | 483 kts | 125° |
| 2026-04-29 11:33 | 30.89683 | 33.08893 | 35039 ft | 484 kts | 125° |
| 2026-04-29 11:33 | 30.85977 | 33.15473 | 35040 ft | 485 kts | 125° |
| 2026-04-29 11:34 | 30.82271 | 33.22041 | 35021 ft | 486 kts | 125° |
| 2026-04-29 11:34 | 30.78556 | 33.28614 | 35021 ft | 486 kts | 125° |
| 2026-04-29 11:35 | 30.74853 | 33.35155 | 35017 ft | 487 kts | 125° |
| 2026-04-29 11:35 | 30.71118 | 33.41740 | 35009 ft | 487 kts | 125° |
| 2026-04-29 11:36 | 30.67400 | 33.48287 | 35010 ft | 487 kts | 125° |
| 2026-04-29 11:36 | 30.63653 | 33.54871 | 35011 ft | 488 kts | 125° |
| 2026-04-29 11:37 | 30.59906 | 33.61448 | 35008 ft | 488 kts | 125° |
| 2026-04-29 11:37 | 30.56155 | 33.68017 | 35009 ft | 488 kts | 125° |
| 2026-04-29 11:38 | 30.52424 | 33.74544 | 35001 ft | 488 kts | 126° |
| 2026-04-29 11:38 | 30.48668 | 33.81101 | 35001 ft | 488 kts | 126° |
| 2026-04-29 11:39 | 30.44907 | 33.87656 | 35001 ft | 488 kts | 126° |
| 2026-04-29 11:39 | 30.41781 | 33.93097 | 34996 ft | 488 kts | 126° |
| 2026-04-29 11:40 | 30.38014 | 33.99644 | 34998 ft | 488 kts | 126° |
| 2026-04-29 11:40 | 30.34242 | 34.06189 | 34971 ft | 488 kts | 126° |
| 2026-04-29 11:41 | 30.30469 | 34.12723 | 34983 ft | 487 kts | 126° |
| 2026-04-29 11:41 | 30.26796 | 34.19088 | 34975 ft | 457 kts | 126° |
| 2026-04-29 11:42 | 30.23294 | 34.25121 | 34980 ft | 452 kts | 127° |
| 2026-04-29 11:42 | 30.19782 | 34.31181 | 34982 ft | 455 kts | 127° |
| 2026-04-29 11:43 | 30.16278 | 34.37213 | 34983 ft | 454 kts | 127° |
| 2026-04-29 11:43 | 30.12743 | 34.43288 | 34622 ft | 460 kts | 127° |
| 2026-04-29 11:44 | 30.10955 | 34.46356 | 33909 ft | 460 kts | 126° |
| 2026-04-29 11:44 | 30.09177 | 34.49412 | 33185 ft | 454 kts | 126° |
| 2026-04-29 11:44 | 30.07425 | 34.52416 | 32504 ft | 449 kts | 126° |
| 2026-04-29 11:44 | 30.05685 | 34.55397 | 31820 ft | 446 kts | 126° |
| 2026-04-29 11:45 | 30.03947 | 34.58366 | 31145 ft | 448 kts | 126° |
| 2026-04-29 11:45 | 30.02197 | 34.61361 | 30456 ft | 451 kts | 126° |
| 2026-04-29 11:45 | 30.00434 | 34.64375 | 29716 ft | 454 kts | 126° |
| 2026-04-29 11:45 | 29.98666 | 34.67399 | 29014 ft | 453 kts | 126° |
| 2026-04-29 11:46 | 29.96903 | 34.70406 | 28320 ft | 452 kts | 126° |
| 2026-04-29 11:46 | 29.95166 | 34.73368 | 27638 ft | 451 kts | 126° |
| 2026-04-29 11:46 | 29.93411 | 34.76359 | 26943 ft | 449 kts | 126° |
| 2026-04-29 11:46 | 29.91669 | 34.79326 | 26262 ft | 444 kts | 126° |
| 2026-04-29 11:47 | 29.89949 | 34.82256 | 25591 ft | 438 kts | 126° |
| 2026-04-29 11:47 | 29.88247 | 34.85147 | 24933 ft | 433 kts | 126° |
| 2026-04-29 11:47 | 29.86568 | 34.87999 | 24265 ft | 428 kts | 126° |
| 2026-04-29 11:47 | 29.84911 | 34.90818 | 23638 ft | 422 kts | 126° |
| 2026-04-29 11:48 | 29.83271 | 34.93599 | 22948 ft | 415 kts | 126° |
| 2026-04-29 11:48 | 29.81664 | 34.96325 | 22323 ft | 407 kts | 126° |
| 2026-04-29 11:48 | 29.80074 | 34.99019 | 21730 ft | 406 kts | 126° |
| 2026-04-29 11:48 | 29.78493 | 35.01696 | 21104 ft | 401 kts | 126° |
| 2026-04-29 11:49 | 29.76933 | 35.04333 | 20506 ft | 396 kts | 126° |
| 2026-04-29 11:49 | 29.75411 | 35.06904 | 19925 ft | 391 kts | 126° |
| 2026-04-29 11:49 | 29.73890 | 35.09481 | 19340 ft | 387 kts | 126° |
| 2026-04-29 11:49 | 29.72383 | 35.12036 | 18769 ft | 383 kts | 126° |
| 2026-04-29 11:50 | 29.70889 | 35.14552 | 18195 ft | 379 kts | 126° |
| 2026-04-29 11:50 | 29.69414 | 35.17039 | 17605 ft | 373 kts | 126° |
| 2026-04-29 11:50 | 29.67967 | 35.19480 | 17049 ft | 367 kts | 126° |
| 2026-04-29 11:50 | 29.66554 | 35.21863 | 16514 ft | 360 kts | 126° |
| 2026-04-29 11:51 | 29.65154 | 35.24221 | 15981 ft | 351 kts | 126° |
| 2026-04-29 11:51 | 29.63806 | 35.26492 | 15470 ft | 336 kts | 126° |
| 2026-04-29 11:51 | 29.62485 | 35.28655 | 14883 ft | 325 kts | 131° |
| 2026-04-29 11:51 | 29.60719 | 35.30156 | 14386 ft | 311 kts | 160° |
| 2026-04-29 11:52 | 29.58646 | 35.30768 | 13940 ft | 312 kts | 177° |
| 2026-04-29 11:52 | 29.56416 | 35.30579 | 13462 ft | 325 kts | 192° |
| 2026-04-29 11:52 | 29.54176 | 35.30068 | 12974 ft | 331 kts | 193° |
| 2026-04-29 11:52 | 29.51939 | 35.29588 | 12491 ft | 331 kts | 191° |
| 2026-04-29 11:53 | 29.49661 | 35.29163 | 11993 ft | 327 kts | 190° |
| 2026-04-29 11:53 | 29.47485 | 35.28754 | 11529 ft | 307 kts | 190° |
| 2026-04-29 11:53 | 29.45427 | 35.28347 | 11088 ft | 294 kts | 191° |
| 2026-04-29 11:53 | 29.43434 | 35.27949 | 10636 ft | 287 kts | 192° |
| 2026-04-29 11:54 | 29.41643 | 35.27015 | 10203 ft | 285 kts | 216° |
| 2026-04-29 11:54 | 29.40240 | 35.25411 | 9785 ft | 286 kts | 234° |
| 2026-04-29 11:54 | 29.39295 | 35.23417 | 9365 ft | 283 kts | 242° |
| 2026-04-29 11:54 | 29.38429 | 35.21426 | 8953 ft | 282 kts | 241° |
| 2026-04-29 11:55 | 29.37643 | 35.19378 | 8528 ft | 282 kts | 253° |
| 2026-04-29 11:55 | 29.37427 | 35.17134 | 8123 ft | 285 kts | 270° |
| 2026-04-29 11:55 | 29.37544 | 35.14892 | 8032 ft | 279 kts | 272° |
| 2026-04-29 11:55 | 29.37651 | 35.12647 | 8000 ft | 281 kts | 272° |
| 2026-04-29 11:56 | 29.37754 | 35.10409 | 7992 ft | 282 kts | 271° |
| 2026-04-29 11:56 | 29.37856 | 35.08156 | 7993 ft | 283 kts | 271° |
| 2026-04-29 11:56 | 29.37977 | 35.05926 | 8010 ft | 284 kts | 276° |
| 2026-04-29 11:56 | 29.38501 | 35.03727 | 8006 ft | 287 kts | 288° |
| 2026-04-29 11:57 | 29.39109 | 35.01552 | 8014 ft | 286 kts | 285° |
| 2026-04-29 11:57 | 29.39687 | 34.99379 | 8022 ft | 281 kts | 285° |
| 2026-04-29 11:57 | 29.40401 | 34.97401 | 8005 ft | 259 kts | 306° |
| 2026-04-29 11:57 | 29.41783 | 34.96207 | 7738 ft | 251 kts | 336° |
| 2026-04-29 11:58 | 29.43571 | 34.95771 | 6402 ft | 281 kts | 357° |
| 2026-04-29 11:58 | 29.45531 | 34.96055 | 5643 ft | 276 kts | 12° |
| 2026-04-29 11:58 | 29.47279 | 34.96666 | 4919 ft | 246 kts | 19° |
| 2026-04-29 11:58 | 29.48757 | 34.97301 | 4169 ft | 210 kts | 19° |
| 2026-04-29 11:59 | 29.50066 | 34.97840 | 3457 ft | 191 kts | 18° |
| 2026-04-29 11:59 | 29.51187 | 34.98257 | 3185 ft | 148 kts | 15° |
| 2026-04-29 11:59 | 29.52121 | 34.98592 | 2660 ft | 133 kts | 16° |
| 2026-04-29 11:59 | 29.52989 | 34.98901 | 2252 ft | 131 kts | 15° |
| 2026-04-29 12:00 | 29.53855 | 34.99209 | 2022 ft | 126 kts | 16° |
| 2026-04-29 12:00 | 29.54724 | 34.99542 | 1583 ft | 130 kts | 15° |
| 2026-04-29 12:00 | 29.55581 | 34.99812 | 1263 ft | 131 kts | 14° |
| 2026-04-29 12:00 | 29.56462 | 35.00133 | 1040 ft | 136 kts | 14° |
| 2026-04-29 12:01 | 29.57343 | 35.00440 | 758 ft | 123 kts | 14° |
| 2026-04-29 12:01 | 29.58233 | 35.00735 | 625 ft | 131 kts | 16° |
| 2026-04-29 12:01 | 29.59037 | 35.01060 | 416 ft | 112 kts | 14° |
| 2026-04-29 12:01 | 29.59795 | 35.01324 | 208 ft | 124 kts | 14° |
| 2026-04-29 12:02 | 29.60531 | 35.01571 | 144 ft | 86 kts | 15° |
| 2026-04-29 12:02 | 29.60875 | 35.01717 | 136 ft | 26 kts | 26° |
| 2026-04-29 12:02 | 29.60915 | 35.01889 | 134 ft | 24 kts | 103° |